createdAt,value
2022-11-17T00:02:21.014Z,14.27
2022-11-17T00:04:50.371Z,12.60
2022-11-17T00:07:19.717Z,14.95
2022-11-17T00:09:50.664Z,16.27
2022-11-17T00:12:37.238Z,12.85
2022-11-17T00:15:07.752Z,16.88
2022-11-17T00:17:37.072Z,15.68
2022-11-17T00:20:40.000Z,13.90
2022-11-17T00:23:09.462Z,13.95
2022-11-17T00:25:40.243Z,14.73
2022-11-17T00:28:09.689Z,23.52
2022-11-17T00:30:56.268Z,15.73
2022-11-17T00:33:42.818Z,13.93
2022-11-17T00:36:12.235Z,16.10
2022-11-17T00:38:41.731Z,33.13
2022-11-17T00:41:12.501Z,24.67
2022-11-17T00:43:41.785Z,22.58
2022-11-17T00:46:11.169Z,25.70
2022-11-17T00:51:09.895Z,21.13
2022-11-17T00:53:39.314Z,13.77
2022-11-17T00:56:09.060Z,16.67
2022-11-17T00:58:38.677Z,16.42
2022-11-17T01:01:08.468Z,11.43
2022-11-17T01:03:38.404Z,16.33
2022-11-17T01:06:13.150Z,14.30
2022-11-17T01:08:42.753Z,14.05
2022-11-17T01:11:15.117Z,18.95
2022-11-17T01:13:46.053Z,10.82
2022-11-17T01:16:18.434Z,11.25
2022-11-17T01:18:50.299Z,12.55
2022-11-17T01:21:22.872Z,10.53
2022-11-17T01:23:55.041Z,9.18
2022-11-17T01:26:27.007Z,9.73
2022-11-17T01:28:56.443Z,11.43
2022-11-17T01:31:28.890Z,10.93
2022-11-17T01:33:59.199Z,10.73
2022-11-17T01:36:52.971Z,9.52
2022-11-17T01:39:22.522Z,10.88
2022-11-17T01:41:52.116Z,11.90
2022-11-17T01:44:58.789Z,10.77
2022-11-17T01:47:40.361Z,13.20
2022-11-17T01:50:23.051Z,9.90
2022-11-17T01:52:57.299Z,9.57
2022-11-17T01:55:31.700Z,8.70
2022-11-17T01:58:04.936Z,9.48
2022-11-17T02:00:34.638Z,10.52
2022-11-17T02:03:07.464Z,10.73
2022-11-17T02:05:47.014Z,12.27
2022-11-17T02:08:20.152Z,9.95
2022-11-17T02:10:53.796Z,10.18
2022-11-17T02:13:24.404Z,8.07
2022-11-17T02:15:53.865Z,9.23
2022-11-17T02:18:23.609Z,8.82
2022-11-17T02:21:08.691Z,8.48
2022-11-17T02:24:35.702Z,11.25
2022-11-17T02:27:43.839Z,10.55
2022-11-17T02:30:16.954Z,11.23
2022-11-17T02:33:01.776Z,10.43
2022-11-17T02:35:43.352Z,12.00
2022-11-17T02:38:28.706Z,9.00
2022-11-17T02:41:06.808Z,8.13
2022-11-17T02:44:02.406Z,9.48
2022-11-17T02:46:41.919Z,7.80
2022-11-17T02:49:21.725Z,10.38
2022-11-17T02:51:56.514Z,11.27
2022-11-17T02:54:30.037Z,9.32
2022-11-17T02:56:59.370Z,8.95
2022-11-17T02:59:34.611Z,8.35
2022-11-17T03:02:35.609Z,9.48
2022-11-17T03:05:16.676Z,8.02
2022-11-17T03:08:03.672Z,11.55
2022-11-17T03:10:47.694Z,10.77
2022-11-17T03:13:25.808Z,8.93
2022-11-17T03:16:05.126Z,8.85
2022-11-17T03:18:44.232Z,9.18
2022-11-17T03:21:23.549Z,12.15
2022-11-17T03:24:00.154Z,7.90
2022-11-17T03:26:36.522Z,9.57
2022-11-17T03:29:12.511Z,7.38
2022-11-17T03:31:46.147Z,7.55
2022-11-17T03:34:20.254Z,8.15
2022-11-17T03:36:55.012Z,12.15
2022-11-17T03:39:29.861Z,8.88
2022-11-17T03:42:04.784Z,8.75
2022-11-17T03:44:40.113Z,9.13
2022-11-17T03:47:14.219Z,9.38
2022-11-17T03:52:09.696Z,9.05
2022-11-17T03:54:39.906Z,7.03
2022-11-17T03:57:15.966Z,27.27
2022-11-17T03:59:55.262Z,9.57
2022-11-17T04:02:26.632Z,12.82
2022-11-17T04:05:08.136Z,11.05
2022-11-17T04:07:41.547Z,32.70
2022-11-17T04:10:13.545Z,20.95
2022-11-17T04:13:00.692Z,14.67
2022-11-17T04:15:47.982Z,14.02
2022-11-17T04:18:17.977Z,14.27
2022-11-17T04:20:52.851Z,9.63
2022-11-17T04:23:24.170Z,7.07
2022-11-17T04:26:13.211Z,12.65
2022-11-17T04:28:46.666Z,10.43
2022-11-17T04:31:18.607Z,15.40
2022-11-17T04:33:50.252Z,10.10
2022-11-17T04:36:22.094Z,11.20
2022-11-17T04:38:56.390Z,10.17
2022-11-17T04:41:45.523Z,13.70
2022-11-17T04:44:17.674Z,12.05
2022-11-17T04:46:47.943Z,11.65
2022-11-17T04:49:19.284Z,8.88
2022-11-17T04:51:49.769Z,15.25
2022-11-17T04:54:24.376Z,15.05
2022-11-17T04:56:55.036Z,14.23
2022-11-17T04:59:25.276Z,10.40
2022-11-17T05:01:54.755Z,14.50
2022-11-17T05:04:41.693Z,9.98
2022-11-17T05:07:11.409Z,10.63
2022-11-17T05:09:42.252Z,11.48
2022-11-17T05:12:29.435Z,11.65
2022-11-17T05:14:59.871Z,8.07
2022-11-17T05:17:28.064Z,10.88
2022-11-17T05:19:59.075Z,24.27
2022-11-17T05:22:45.803Z,181.90
2022-11-17T05:25:16.772Z,112.57
2022-11-17T05:27:45.992Z,52.15
2022-11-17T05:30:16.524Z,46.90
2022-11-17T05:32:45.849Z,62.15
2022-11-17T05:35:15.233Z,85.47
2022-11-17T05:37:44.603Z,87.18
2022-11-17T05:40:16.416Z,55.97
2022-11-17T05:42:45.783Z,13.93
2022-11-17T05:45:15.338Z,13.88
2022-11-17T05:47:44.744Z,57.05
2022-11-17T05:50:14.324Z,49.03
2022-11-17T05:52:43.687Z,40.22
2022-11-17T05:55:12.950Z,20.02
2022-11-17T05:57:44.444Z,22.67
2022-11-17T06:00:15.788Z,81.95
2022-11-17T06:02:50.415Z,73.75
2022-11-17T06:05:20.678Z,73.60
2022-11-17T06:07:50.415Z,76.90
2022-11-17T06:10:20.424Z,30.13
2022-11-17T06:12:51.117Z,13.70
2022-11-17T06:15:20.580Z,25.48
2022-11-17T06:17:55.368Z,29.35
2022-11-17T06:20:29.897Z,24.45
2022-11-17T06:23:03.449Z,23.27
2022-11-17T06:25:33.854Z,24.75
2022-11-17T06:28:08.111Z,14.70
2022-11-17T06:30:39.294Z,16.88
2022-11-17T06:33:11.776Z,25.65
2022-11-17T06:35:42.412Z,36.15
2022-11-17T06:38:11.697Z,38.08
2022-11-17T06:40:41.169Z,46.38
2022-11-17T06:43:11.998Z,43.03
2022-11-17T06:45:43.690Z,46.00
2022-11-17T06:48:15.689Z,43.33
2022-11-17T06:52:11.214Z,48.47
2022-11-17T06:54:40.546Z,34.60
2022-11-17T06:57:09.936Z,21.00
2022-11-17T06:59:39.755Z,15.55
2022-11-17T07:02:09.044Z,15.40
2022-11-17T07:04:38.595Z,15.02
2022-11-17T07:07:09.428Z,13.07
2022-11-17T07:09:39.536Z,13.70
2022-11-17T07:12:09.136Z,23.08
2022-11-17T07:14:38.433Z,17.05
2022-11-17T07:17:09.116Z,15.20
2022-11-17T07:19:38.527Z,13.60
2022-11-17T07:22:09.483Z,14.43
2022-11-17T07:24:38.900Z,11.55
2022-11-17T07:27:08.375Z,10.50
2022-11-17T07:29:37.836Z,13.45
2022-11-17T07:32:08.870Z,15.45
2022-11-17T07:34:38.192Z,14.88
2022-11-17T07:37:09.033Z,13.23
2022-11-17T07:39:38.685Z,12.05
2022-11-17T07:42:08.416Z,15.93
2022-11-17T07:44:38.231Z,13.32
2022-11-17T07:47:07.753Z,13.05
2022-11-17T07:49:37.215Z,20.92
2022-11-17T07:52:08.458Z,29.02
2022-11-17T07:54:37.961Z,41.15
2022-11-17T07:57:07.400Z,59.95
2022-11-17T07:59:36.835Z,32.42
2022-11-17T08:02:06.276Z,32.28
2022-11-17T08:04:35.877Z,30.38
2022-11-17T08:07:05.271Z,21.60
2022-11-17T08:09:36.125Z,18.73
2022-11-17T08:12:06.217Z,19.58
2022-11-17T08:14:35.775Z,17.23
2022-11-17T08:17:05.277Z,22.42
2022-11-17T08:19:34.821Z,24.00
2022-11-17T08:22:04.394Z,29.75
2022-11-17T08:24:35.372Z,31.88
2022-11-17T08:27:04.673Z,31.38
2022-11-17T08:29:34.432Z,33.55
2022-11-17T08:32:03.933Z,35.83
2022-11-17T08:34:33.298Z,42.25
2022-11-17T08:37:03.271Z,35.42
2022-11-17T08:39:32.635Z,33.03
2022-11-17T08:42:03.536Z,25.85
2022-11-17T08:44:33.009Z,27.92
2022-11-17T08:47:02.402Z,30.60
2022-11-17T08:49:31.854Z,27.05
2022-11-17T08:52:01.295Z,48.72
2022-11-17T08:54:30.865Z,44.67
2022-11-17T08:57:02.148Z,44.08
2022-11-17T08:59:31.660Z,27.17
2022-11-17T09:02:01.069Z,28.30
2022-11-17T09:04:31.102Z,27.73
2022-11-17T09:07:00.765Z,28.85
2022-11-17T09:09:33.267Z,29.60
2022-11-17T09:12:04.262Z,21.20
2022-11-17T09:14:33.708Z,20.92
2022-11-17T09:17:03.117Z,20.63
2022-11-17T09:19:32.619Z,16.13
2022-11-17T09:22:02.024Z,16.10
2022-11-17T09:24:31.366Z,16.55
2022-11-17T09:27:03.158Z,16.10
2022-11-17T09:29:34.071Z,15.70
2022-11-17T09:32:03.478Z,15.77
2022-11-17T09:34:32.940Z,15.85
2022-11-17T09:37:02.558Z,15.00
2022-11-17T09:39:31.938Z,12.02
2022-11-17T09:42:01.630Z,11.30
2022-11-17T09:44:42.665Z,11.23
2022-11-17T09:47:23.670Z,11.52
2022-11-17T09:52:20.558Z,8.98
2022-11-17T09:54:58.225Z,10.10
2022-11-17T09:57:38.560Z,8.55
2022-11-17T10:00:16.737Z,5.50
2022-11-17T10:02:46.412Z,5.35
2022-11-17T10:05:17.970Z,8.23
2022-11-17T10:07:53.958Z,7.10
2022-11-17T10:10:35.201Z,8.55
2022-11-17T10:13:07.725Z,8.60
2022-11-17T10:15:47.589Z,7.18
2022-11-17T10:18:19.205Z,8.13
2022-11-17T10:20:49.136Z,9.57
2022-11-17T10:23:22.200Z,6.63
2022-11-17T10:26:00.176Z,9.68
2022-11-17T10:28:33.230Z,6.10
2022-11-17T10:31:05.392Z,7.40
2022-11-17T10:33:38.519Z,6.85
2022-11-17T10:36:18.569Z,5.38
2022-11-17T10:38:52.006Z,5.15
2022-11-17T10:41:25.726Z,6.13
2022-11-17T10:44:03.599Z,6.85
2022-11-17T10:46:44.928Z,7.90
2022-11-17T10:49:28.631Z,6.03
2022-11-17T10:52:16.853Z,6.63
2022-11-17T10:54:50.028Z,10.68
2022-11-17T10:57:25.280Z,9.00
2022-11-17T10:59:57.852Z,11.38
2022-11-17T11:02:33.186Z,10.27
2022-11-17T11:05:14.273Z,7.47
2022-11-17T11:07:44.518Z,6.35
2022-11-17T11:10:21.999Z,7.32
2022-11-17T11:13:01.417Z,7.32
2022-11-17T11:15:36.998Z,7.13
2022-11-17T11:18:15.091Z,6.55
2022-11-17T11:20:55.767Z,6.25
2022-11-17T11:23:41.394Z,6.47
2022-11-17T11:26:25.779Z,8.38
2022-11-17T11:29:10.311Z,5.00
2022-11-17T11:31:54.718Z,5.78
2022-11-17T11:34:58.366Z,5.97
2022-11-17T11:37:39.134Z,10.18
2022-11-17T11:40:22.017Z,7.15
2022-11-17T11:45:46.973Z,6.43
2022-11-17T11:48:22.356Z,6.85
2022-11-17T11:50:58.325Z,7.50
2022-11-17T11:53:43.720Z,8.43
2022-11-17T11:56:20.805Z,8.45
2022-11-17T11:59:01.599Z,6.20
2022-11-17T12:01:38.359Z,7.03
2022-11-17T12:04:22.998Z,7.15
2022-11-17T12:07:00.840Z,6.63
2022-11-17T12:09:50.811Z,6.30
2022-11-17T12:12:24.526Z,8.20
2022-11-17T12:15:26.378Z,5.32
2022-11-17T12:18:04.490Z,4.82
2022-11-17T12:20:56.968Z,5.25
2022-11-17T12:23:50.363Z,4.30
2022-11-17T12:26:27.632Z,3.78
2022-11-17T12:29:34.449Z,3.22
2022-11-17T12:32:06.189Z,3.40
2022-11-17T12:34:37.427Z,4.33
2022-11-17T12:37:26.615Z,3.08
2022-11-17T12:40:02.998Z,3.33
2022-11-17T12:42:34.346Z,3.47
2022-11-17T12:45:09.728Z,3.97
2022-11-17T12:47:48.125Z,6.30
2022-11-17T12:52:20.714Z,6.95
2022-11-17T12:55:00.372Z,4.47
2022-11-17T12:57:34.437Z,3.67
2022-11-17T13:00:12.353Z,3.60
2022-11-17T13:03:06.672Z,3.17
2022-11-17T13:05:36.169Z,3.97
2022-11-17T13:08:25.664Z,3.70
2022-11-17T13:11:07.450Z,4.10
2022-11-17T13:13:37.254Z,2.88
2022-11-17T13:16:10.186Z,4.38
2022-11-17T13:18:43.225Z,2.85
2022-11-17T13:21:30.430Z,3.15
2022-11-17T13:24:02.731Z,4.53
2022-11-17T13:26:38.475Z,4.53
2022-11-17T13:29:09.717Z,4.10
2022-11-17T13:31:39.309Z,5.15
2022-11-17T13:34:17.449Z,3.30
2022-11-17T13:36:56.449Z,2.78
2022-11-17T13:39:28.719Z,3.25
2022-11-17T13:42:00.311Z,2.80
2022-11-17T13:44:30.854Z,3.38
2022-11-17T13:47:04.184Z,4.13
2022-11-17T13:49:36.883Z,3.70
2022-11-17T13:54:37.760Z,5.15
2022-11-17T13:57:10.130Z,3.05
2022-11-17T13:59:41.573Z,3.50
2022-11-17T14:02:30.517Z,7.28
2022-11-17T14:05:24.289Z,5.05
2022-11-17T14:07:55.429Z,5.47
2022-11-17T14:10:35.069Z,4.90
2022-11-17T14:13:30.096Z,10.85
2022-11-17T14:16:02.190Z,10.68
2022-11-17T14:18:37.078Z,14.80
2022-11-17T14:21:13.234Z,13.07
2022-11-17T14:23:43.949Z,11.57
2022-11-17T14:26:22.758Z,11.50
2022-11-17T14:28:54.107Z,9.68
2022-11-17T14:31:23.643Z,9.48
2022-11-17T14:33:53.309Z,8.77
2022-11-17T14:36:23.902Z,8.63
2022-11-17T14:38:53.677Z,10.75
2022-11-17T14:41:24.577Z,8.98
2022-11-17T14:43:53.997Z,6.32
2022-11-17T14:46:26.157Z,8.05
2022-11-17T14:48:56.800Z,6.05
2022-11-17T14:51:26.186Z,3.60
2022-11-17T14:53:56.050Z,3.78
2022-11-17T14:56:27.340Z,5.50
2022-11-17T14:58:58.894Z,4.72
2022-11-17T15:01:31.250Z,4.53
2022-11-17T15:04:21.089Z,5.38
2022-11-17T15:06:55.896Z,4.25
2022-11-17T15:11:55.972Z,3.20
2022-11-17T15:14:25.454Z,3.42
2022-11-17T15:16:54.828Z,3.70
2022-11-17T15:19:24.317Z,3.55
2022-11-17T15:21:54.265Z,3.20
2022-11-17T15:24:24.003Z,3.72
2022-11-17T15:26:54.857Z,4.07
2022-11-17T15:29:24.709Z,5.15
2022-11-17T15:31:54.188Z,4.20
2022-11-17T15:34:23.600Z,8.15
2022-11-17T15:36:52.875Z,5.25
2022-11-17T15:39:22.474Z,4.97
2022-11-17T15:41:52.094Z,5.50
2022-11-17T15:44:23.037Z,6.82
2022-11-17T15:46:52.304Z,5.97
2022-11-17T15:52:09.446Z,28.92
2022-11-17T15:54:38.901Z,13.25
2022-11-17T15:57:08.392Z,11.23
2022-11-17T15:59:37.873Z,13.60
2022-11-17T16:02:11.290Z,9.43
2022-11-17T16:04:40.609Z,11.32
2022-11-17T16:07:11.630Z,12.32
2022-11-17T16:09:42.993Z,12.38
2022-11-17T16:12:13.436Z,9.43
2022-11-17T16:14:43.169Z,12.07
2022-11-17T16:17:12.565Z,9.80
2022-11-17T16:19:41.936Z,9.60
2022-11-17T16:22:12.809Z,9.05
2022-11-17T16:24:42.157Z,8.85
2022-11-17T16:27:13.625Z,8.27
2022-11-17T16:29:43.409Z,12.00
2022-11-17T16:32:12.794Z,9.23
2022-11-17T16:34:43.718Z,11.23
2022-11-17T16:37:15.752Z,8.02
2022-11-17T16:39:45.186Z,8.40
2022-11-17T16:42:14.529Z,8.55
2022-11-17T16:44:44.105Z,6.13
2022-11-17T16:47:13.669Z,6.80
2022-11-17T16:49:44.821Z,8.90
2022-11-17T16:52:18.898Z,7.57
2022-11-17T16:54:48.945Z,8.35
2022-11-17T16:57:18.390Z,8.77
2022-11-17T16:59:47.886Z,8.95
2022-11-17T17:02:17.225Z,6.55
2022-11-17T17:04:46.778Z,8.93
2022-11-17T17:07:18.628Z,7.70
2022-11-17T17:09:48.079Z,11.90
2022-11-17T17:12:17.549Z,10.98
2022-11-17T17:14:47.071Z,10.27
2022-11-17T17:17:16.490Z,9.30
2022-11-17T17:19:45.926Z,10.65
2022-11-17T17:22:15.304Z,13.73
2022-11-17T17:24:46.121Z,9.85
2022-11-17T17:27:15.511Z,13.68
2022-11-17T17:29:45.478Z,12.82
2022-11-17T17:32:15.472Z,10.95
2022-11-17T17:34:45.080Z,11.63
2022-11-17T17:37:14.389Z,10.63
2022-11-17T17:39:45.447Z,11.50
2022-11-17T17:42:14.990Z,15.50
2022-11-17T17:44:44.498Z,11.73
2022-11-17T17:47:13.964Z,11.23
2022-11-17T17:49:43.334Z,13.75
2022-11-17T17:52:14.084Z,10.88
2022-11-17T17:54:45.073Z,17.80
2022-11-17T17:57:14.570Z,11.05
2022-11-17T17:59:44.077Z,9.77
2022-11-17T18:02:13.467Z,8.27
2022-11-17T18:04:42.732Z,12.13
2022-11-17T18:07:12.262Z,9.00
2022-11-17T18:09:41.696Z,8.13
2022-11-17T18:12:12.525Z,10.32
2022-11-17T18:14:41.981Z,10.52
2022-11-17T18:17:11.533Z,12.77
2022-11-17T18:19:40.902Z,9.32
2022-11-17T18:22:10.349Z,9.55
2022-11-17T18:24:39.716Z,8.98
2022-11-17T18:27:10.553Z,14.18
2022-11-17T18:29:39.940Z,14.43
2022-11-17T18:32:09.386Z,10.27
2022-11-17T18:34:42.010Z,10.70
2022-11-17T18:37:11.540Z,9.45
2022-11-17T18:39:40.898Z,9.48
2022-11-17T18:42:11.844Z,10.25
2022-11-17T18:44:41.246Z,9.68
2022-11-17T18:47:10.683Z,10.25
2022-11-17T18:52:10.070Z,11.10
2022-11-17T18:54:39.513Z,11.85
2022-11-17T18:57:09.090Z,12.32
2022-11-17T18:59:38.371Z,13.55
2022-11-17T19:02:07.782Z,12.63
2022-11-17T19:04:37.177Z,10.30
2022-11-17T19:07:08.084Z,11.07
2022-11-17T19:09:37.561Z,11.82
2022-11-17T19:12:08.963Z,8.93
2022-11-17T19:14:38.431Z,12.98
2022-11-17T19:17:07.730Z,9.32
2022-11-17T19:19:37.089Z,9.30
2022-11-17T19:22:08.104Z,12.23
2022-11-17T19:24:38.994Z,9.30
2022-11-17T19:27:08.622Z,7.05
2022-11-17T19:29:39.022Z,6.45
2022-11-17T19:32:08.566Z,5.05
2022-11-17T19:34:38.137Z,5.97
2022-11-17T19:37:09.098Z,5.97
2022-11-17T19:39:38.597Z,7.95
2022-11-17T19:42:08.201Z,5.18
2022-11-17T19:44:37.653Z,7.70
2022-11-17T19:47:07.164Z,5.75
2022-11-17T19:49:36.648Z,7.20
2022-11-17T19:52:08.365Z,6.60
2022-11-17T19:54:37.838Z,6.70
2022-11-17T19:57:07.299Z,5.05
2022-11-17T19:59:36.738Z,3.72
2022-11-17T20:02:06.217Z,5.75
2022-11-17T20:04:35.639Z,5.35
2022-11-17T20:07:05.331Z,5.35
2022-11-17T20:09:36.329Z,11.82
2022-11-17T20:12:06.639Z,18.02
2022-11-17T20:14:36.008Z,45.13
2022-11-17T20:17:05.429Z,34.88
2022-11-17T20:19:35.325Z,25.35
2022-11-17T20:22:04.704Z,29.13
2022-11-17T20:24:35.605Z,14.38
2022-11-17T20:27:04.891Z,13.82
2022-11-17T20:29:34.445Z,19.45
2022-11-17T20:32:03.787Z,19.55
2022-11-17T20:34:33.198Z,15.38
2022-11-17T20:37:02.651Z,18.27
2022-11-17T20:39:31.973Z,21.95
2022-11-17T20:42:02.917Z,17.85
2022-11-17T20:44:32.865Z,8.65
2022-11-17T20:47:02.180Z,17.45
2022-11-17T20:49:32.050Z,12.32
2022-11-17T20:52:01.509Z,11.68
2022-11-17T20:54:30.917Z,16.90
2022-11-17T20:57:01.789Z,16.55
2022-11-17T20:59:31.185Z,15.30
2022-11-17T21:02:00.570Z,12.30
2022-11-17T21:04:30.598Z,11.38
2022-11-17T21:07:00.079Z,7.80
2022-11-17T21:09:29.524Z,6.22
2022-11-17T21:11:58.964Z,6.40
2022-11-17T21:14:30.808Z,14.60
2022-11-17T21:17:01.386Z,5.77
2022-11-17T21:19:33.241Z,11.18
2022-11-17T21:22:04.750Z,4.70
2022-11-17T21:24:34.249Z,6.25
2022-11-17T21:27:03.705Z,5.63
2022-11-17T21:29:34.633Z,4.60
2022-11-17T21:32:04.049Z,14.52
2022-11-17T21:34:33.473Z,9.43
2022-11-17T21:37:02.850Z,12.68
2022-11-17T21:39:32.315Z,14.40
2022-11-17T21:42:01.749Z,9.35
2022-11-17T21:44:31.475Z,5.47
2022-11-17T21:47:02.398Z,18.63
2022-11-17T21:52:09.506Z,8.35
2022-11-17T21:54:39.089Z,9.85
2022-11-17T21:57:08.669Z,9.00
2022-11-17T21:59:38.165Z,18.00
2022-11-17T22:02:07.495Z,10.90
2022-11-17T22:04:37.018Z,23.15
2022-11-17T22:07:08.039Z,10.77
2022-11-17T22:09:37.483Z,9.80
2022-11-17T22:12:07.304Z,8.07
2022-11-17T22:14:36.729Z,10.23
2022-11-17T22:17:06.079Z,8.48
2022-11-17T22:19:35.577Z,9.63
2022-11-17T22:22:05.018Z,9.48
2022-11-17T22:24:37.057Z,8.75
2022-11-17T22:27:09.100Z,10.90
2022-11-17T22:29:38.590Z,9.93
2022-11-17T22:32:08.253Z,8.82
2022-11-17T22:34:37.825Z,7.68
2022-11-17T22:37:07.320Z,8.75
2022-11-17T22:39:38.612Z,5.28
2022-11-17T22:42:08.720Z,7.55
2022-11-17T22:44:38.231Z,4.93
2022-11-17T22:47:07.844Z,5.65
2022-11-17T22:49:37.266Z,3.85
2022-11-17T22:52:08.487Z,3.55
2022-11-17T22:54:39.521Z,3.85
2022-11-17T22:57:08.870Z,4.35
2022-11-17T22:59:38.412Z,2.72
2022-11-17T23:02:07.824Z,3.10
2022-11-17T23:04:37.167Z,2.95
2022-11-17T23:07:06.667Z,4.88
2022-11-17T23:09:37.564Z,3.83
2022-11-17T23:12:07.692Z,3.20
2022-11-17T23:14:37.465Z,2.38
2022-11-17T23:17:06.850Z,2.53
2022-11-17T23:19:36.298Z,3.45
2022-11-17T23:22:05.735Z,3.78
2022-11-17T23:24:35.069Z,3.70
2022-11-17T23:27:06.087Z,3.97
2022-11-17T23:29:35.440Z,4.35
2022-11-17T23:32:04.987Z,3.70
2022-11-17T23:34:35.338Z,2.67
2022-11-17T23:37:04.791Z,3.63
2022-11-17T23:39:34.277Z,2.72
2022-11-17T23:42:05.654Z,2.42
2022-11-17T23:44:35.073Z,3.58
2022-11-17T23:47:04.501Z,2.40
2022-11-17T23:49:33.894Z,2.97
2022-11-17T23:52:03.431Z,2.45
2022-11-17T23:54:32.921Z,2.90
2022-11-17T23:57:02.446Z,2.40
2022-11-17T23:59:33.403Z,3.17
